createdAt,value
2019-01-25T00:00:58.185Z,0.81
2019-01-25T00:03:27.259Z,0.84
2019-01-25T00:05:56.345Z,0.82
2019-01-25T00:08:25.455Z,0.81
2019-01-25T00:10:54.909Z,0.80
2019-01-25T00:13:24.349Z,0.86
2019-01-25T00:15:53.821Z,0.95
2019-01-25T00:18:23.263Z,0.83
2019-01-25T00:20:52.393Z,0.79
2019-01-25T00:23:22.938Z,0.78
2019-01-25T00:25:52.467Z,0.83
2019-01-25T00:28:21.554Z,0.94
2019-01-25T00:30:51.469Z,0.96
2019-01-25T00:33:20.658Z,0.92
2019-01-25T00:35:50.093Z,0.87
2019-01-25T00:38:19.294Z,0.85
2019-01-25T00:40:48.381Z,0.85
2019-01-25T00:43:17.899Z,0.87
2019-01-25T00:45:47.338Z,0.84
2019-01-25T00:48:16.436Z,0.86
2019-01-25T00:50:45.498Z,0.93
2019-01-25T00:53:14.587Z,0.84
2019-01-25T00:55:43.700Z,0.82
2019-01-25T00:58:12.832Z,0.81
2019-01-25T01:00:41.943Z,0.81
2019-01-25T01:03:11.815Z,0.78
2019-01-25T01:05:40.902Z,0.86
2019-01-25T01:08:10.044Z,0.82
2019-01-25T01:10:39.146Z,0.85
2019-01-25T01:13:08.261Z,0.88
2019-01-25T01:15:37.491Z,0.91
2019-01-25T01:18:06.618Z,0.93
2019-01-25T01:20:36.594Z,1.04
2019-01-25T01:23:05.747Z,1.03
2019-01-25T01:25:34.893Z,1.00
2019-01-25T01:28:04.040Z,1.01
2019-01-25T01:30:34.247Z,1.06
2019-01-25T01:33:03.361Z,1.11
2019-01-25T01:35:33.750Z,1.13
2019-01-25T01:38:03.147Z,1.18
2019-01-25T01:40:32.631Z,1.16
2019-01-25T01:43:01.751Z,1.19
2019-01-25T01:45:31.198Z,1.26
2019-01-25T01:48:00.658Z,1.24
2019-01-25T01:50:29.718Z,1.22
2019-01-25T01:52:59.150Z,1.19
2019-01-25T01:55:28.247Z,1.19
2019-01-25T01:57:57.653Z,1.15
2019-01-25T02:00:27.587Z,1.20
2019-01-25T02:02:56.903Z,1.29
2019-01-25T02:05:25.958Z,1.16
2019-01-25T02:07:55.058Z,1.11
2019-01-25T02:10:29.613Z,1.12
2019-01-25T02:12:57.707Z,1.09
2019-01-25T02:15:27.436Z,1.07
2019-01-25T02:17:56.872Z,1.02
2019-01-25T02:20:28.249Z,1.09
2019-01-25T02:22:57.410Z,1.10
2019-01-25T02:25:26.469Z,1.10
2019-01-25T02:27:55.575Z,1.14
2019-01-25T02:30:25.698Z,1.16
2019-01-25T02:32:55.107Z,1.31
2019-01-25T02:35:24.727Z,1.42
2019-01-25T02:37:53.999Z,1.42
2019-01-25T02:40:27.174Z,1.47
2019-01-25T02:42:56.690Z,1.45
2019-01-25T02:45:25.808Z,1.59
2019-01-25T02:47:55.179Z,1.46
2019-01-25T02:50:24.228Z,1.38
2019-01-25T02:52:53.290Z,1.29
2019-01-25T02:55:22.361Z,1.21
2019-01-25T02:57:52.070Z,1.17
2019-01-25T03:00:25.561Z,1.12
2019-01-25T03:02:55.584Z,1.17
2019-01-25T03:05:25.709Z,1.39
2019-01-25T03:07:54.919Z,1.29
2019-01-25T03:10:28.881Z,1.28
2019-01-25T03:12:56.174Z,1.34
2019-01-25T03:15:26.644Z,1.28
2019-01-25T03:17:56.463Z,1.24
2019-01-25T03:20:26.042Z,1.19
2019-01-25T03:22:55.100Z,1.21
2019-01-25T03:25:28.292Z,1.34
2019-01-25T03:27:57.382Z,1.28
2019-01-25T03:30:27.445Z,1.33
2019-01-25T03:32:56.835Z,1.34
2019-01-25T03:35:26.682Z,1.36
2019-01-25T03:37:55.952Z,1.32
2019-01-25T03:40:29.066Z,1.37
2019-01-25T03:42:58.742Z,1.39
2019-01-25T03:45:29.253Z,1.44
2019-01-25T03:47:58.348Z,1.43
2019-01-25T03:50:29.092Z,1.46
2019-01-25T03:52:58.735Z,1.43
2019-01-25T03:55:27.996Z,1.46
2019-01-25T03:57:57.446Z,1.51
2019-01-25T04:00:28.294Z,1.56
2019-01-25T04:02:57.775Z,1.52
2019-01-25T04:05:26.922Z,1.43
2019-01-25T04:07:56.376Z,1.43
2019-01-25T04:10:27.385Z,1.40
2019-01-25T04:12:57.548Z,1.38
2019-01-25T04:15:28.932Z,1.45
2019-01-25T04:17:58.024Z,1.55
2019-01-25T04:20:27.486Z,1.54
2019-01-25T04:22:56.920Z,1.43
2019-01-25T04:25:26.104Z,1.60
2019-01-25T04:27:55.462Z,1.57
2019-01-25T04:30:26.532Z,1.67
2019-01-25T04:32:55.653Z,1.79
2019-01-25T04:35:24.822Z,1.70
2019-01-25T04:37:54.062Z,1.70
2019-01-25T04:40:23.165Z,1.59
2019-01-25T04:42:52.285Z,1.57
2019-01-25T04:45:22.241Z,1.69
2019-01-25T04:47:52.462Z,1.92
2019-01-25T04:50:23.423Z,1.71
2019-01-25T04:52:54.557Z,1.58
2019-01-25T04:55:32.094Z,1.42
2019-01-25T04:58:15.780Z,1.32
2019-01-25T05:00:44.991Z,1.24
2019-01-25T05:03:14.531Z,1.21
2019-01-25T05:05:43.749Z,1.19
2019-01-25T05:08:16.176Z,1.24
2019-01-25T05:10:46.876Z,1.31
2019-01-25T05:13:15.974Z,1.23
2019-01-25T05:15:45.497Z,1.22
2019-01-25T05:18:15.066Z,1.30
2019-01-25T05:20:44.424Z,1.38
2019-01-25T05:23:13.467Z,1.40
2019-01-25T05:25:42.540Z,1.32
2019-01-25T05:28:16.277Z,1.35
2019-01-25T05:31:00.018Z,1.22
2019-01-25T05:33:29.424Z,1.06
2019-01-25T05:35:58.781Z,1.00
2019-01-25T05:38:27.914Z,1.21
2019-01-25T05:40:56.971Z,1.21
2019-01-25T05:43:26.017Z,1.21
2019-01-25T05:45:55.901Z,1.14
2019-01-25T05:48:31.413Z,1.10
2019-01-25T05:51:06.479Z,1.29
2019-01-25T05:53:35.631Z,1.24
2019-01-25T05:56:06.353Z,1.26
2019-01-25T05:58:35.771Z,1.25
2019-01-25T06:01:05.311Z,1.27
2019-01-25T06:03:34.710Z,1.40
2019-01-25T06:06:05.882Z,1.25
2019-01-25T06:08:35.818Z,1.20
2019-01-25T06:11:09.164Z,1.10
2019-01-25T06:13:39.187Z,1.11
2019-01-25T06:16:08.279Z,1.14
2019-01-25T06:18:37.351Z,1.18
2019-01-25T06:21:06.375Z,1.08
2019-01-25T06:23:35.442Z,1.16
2019-01-25T06:26:05.144Z,1.14
2019-01-25T06:28:34.482Z,1.07
2019-01-25T06:31:04.007Z,1.19
2019-01-25T06:33:33.023Z,1.09
2019-01-25T06:36:02.116Z,1.12
2019-01-25T06:38:31.135Z,1.08
2019-01-25T06:41:00.223Z,1.01
2019-01-25T06:43:29.782Z,0.97
2019-01-25T06:45:58.823Z,0.96
2019-01-25T06:48:28.049Z,0.99
2019-01-25T06:50:57.124Z,1.01
2019-01-25T06:53:26.205Z,0.98
2019-01-25T06:55:56.125Z,1.00
2019-01-25T06:58:42.863Z,1.10
2019-01-25T07:01:30.945Z,1.11
2019-01-25T07:04:00.332Z,1.10
2019-01-25T07:06:29.805Z,1.08
2019-01-25T07:08:59.241Z,1.15
2019-01-25T07:11:28.573Z,1.20
2019-01-25T07:13:57.577Z,1.10
2019-01-25T07:16:26.647Z,1.01
2019-01-25T07:18:56.365Z,1.02
2019-01-25T07:21:25.787Z,0.97
2019-01-25T07:23:54.825Z,1.01
2019-01-25T07:26:23.864Z,1.02
2019-01-25T07:28:52.891Z,0.98
2019-01-25T07:31:21.986Z,0.97
2019-01-25T07:33:51.116Z,1.07
2019-01-25T07:36:20.193Z,1.12
2019-01-25T07:38:49.320Z,1.23
2019-01-25T07:41:18.396Z,1.20
2019-01-25T07:43:47.743Z,1.30
2019-01-25T07:46:17.199Z,1.22
2019-01-25T07:48:46.185Z,1.23
2019-01-25T07:51:15.297Z,1.31
2019-01-25T07:53:44.331Z,1.43
2019-01-25T07:56:13.745Z,1.37
2019-01-25T07:58:43.121Z,1.29
2019-01-25T08:01:12.199Z,1.36
2019-01-25T08:03:41.235Z,1.42
2019-01-25T08:06:10.262Z,1.36
2019-01-25T08:08:39.329Z,1.45
2019-01-25T08:11:08.713Z,1.50
2019-01-25T08:13:38.093Z,1.40
2019-01-25T08:16:07.599Z,1.51
2019-01-25T08:18:36.615Z,1.47
2019-01-25T08:21:05.655Z,1.49
2019-01-25T08:23:34.711Z,1.33
2019-01-25T08:26:03.894Z,1.50
2019-01-25T08:28:32.961Z,1.45
2019-01-25T08:31:02.037Z,1.46
2019-01-25T08:33:31.084Z,1.51
2019-01-25T08:36:00.565Z,1.44
2019-01-25T08:38:29.615Z,1.60
2019-01-25T08:40:59.020Z,1.54
2019-01-25T08:43:28.628Z,1.50
2019-01-25T08:45:58.024Z,1.48
2019-01-25T08:48:29.061Z,1.57
2019-01-25T08:50:57.941Z,1.58
2019-01-25T08:53:27.129Z,1.71
2019-01-25T08:55:56.546Z,1.76
2019-01-25T08:58:26.456Z,1.89
2019-01-25T09:00:55.484Z,1.94
2019-01-25T09:03:24.851Z,1.94
2019-01-25T09:05:54.858Z,2.05
2019-01-25T09:08:23.898Z,2.14
2019-01-25T09:10:53.313Z,1.96
2019-01-25T09:13:22.309Z,1.83
2019-01-25T09:15:52.096Z,1.78
2019-01-25T09:18:23.459Z,1.69
2019-01-25T09:20:52.560Z,1.92
2019-01-25T09:23:21.608Z,1.91
2019-01-25T09:25:50.721Z,2.02
2019-01-25T09:28:19.772Z,2.02
2019-01-25T09:30:48.788Z,2.01
2019-01-25T09:33:18.643Z,2.30
2019-01-25T09:35:47.754Z,2.30
2019-01-25T09:38:17.772Z,2.24
2019-01-25T09:40:46.864Z,2.13
2019-01-25T09:43:16.921Z,2.27
2019-01-25T09:45:45.967Z,2.25
2019-01-25T09:48:15.026Z,2.23
2019-01-25T09:50:44.060Z,2.23
2019-01-25T09:53:13.612Z,2.23
2019-01-25T09:55:42.629Z,2.29
2019-01-25T09:58:14.677Z,2.46
2019-01-25T10:00:50.711Z,2.39
2019-01-25T10:03:21.469Z,2.53
2019-01-25T10:05:50.577Z,2.58
2019-01-25T10:08:20.581Z,2.66
2019-01-25T10:10:49.631Z,2.66
2019-01-25T10:13:20.420Z,2.59
2019-01-25T10:15:49.713Z,2.70
2019-01-25T10:18:24.671Z,2.63
2019-01-25T10:20:49.973Z,2.80
2019-01-25T10:23:19.217Z,2.61
2019-01-25T10:25:48.582Z,2.57
2019-01-25T10:28:17.975Z,2.77
2019-01-25T10:30:47.009Z,2.83
2019-01-25T10:33:16.363Z,2.65
2019-01-25T10:35:45.454Z,2.43
2019-01-25T10:38:14.518Z,2.55
2019-01-25T10:40:43.601Z,2.60
2019-01-25T10:43:13.297Z,2.78
2019-01-25T10:45:42.791Z,2.78
2019-01-25T10:48:13.599Z,2.57
2019-01-25T10:50:42.643Z,2.66
2019-01-25T10:53:12.812Z,2.67
2019-01-25T10:55:41.877Z,2.77
2019-01-25T10:58:11.116Z,2.87
2019-01-25T11:00:40.187Z,2.57
2019-01-25T11:03:09.186Z,2.51
2019-01-25T11:05:38.278Z,2.51
2019-01-25T11:08:07.300Z,2.69
2019-01-25T11:10:36.939Z,2.64
2019-01-25T11:13:06.349Z,2.72
2019-01-25T11:15:35.462Z,2.58
2019-01-25T11:18:04.678Z,2.55
2019-01-25T11:20:34.021Z,2.57
2019-01-25T11:23:03.066Z,2.69
2019-01-25T11:25:37.424Z,2.68
2019-01-25T11:28:06.568Z,2.77
2019-01-25T11:30:35.705Z,2.97
2019-01-25T11:33:05.142Z,2.89
2019-01-25T11:35:34.228Z,2.82
2019-01-25T11:38:03.255Z,2.90
2019-01-25T11:40:34.775Z,2.78
2019-01-25T11:43:08.481Z,2.80
2019-01-25T11:45:34.933Z,2.91
2019-01-25T11:48:04.885Z,2.63
2019-01-25T11:50:34.091Z,2.75
2019-01-25T11:53:03.133Z,2.78
2019-01-25T11:55:32.490Z,2.63
2019-01-25T11:58:01.798Z,2.69
2019-01-25T12:00:31.921Z,2.92
2019-01-25T12:03:00.944Z,2.74
2019-01-25T12:05:30.239Z,2.71
2019-01-25T12:07:59.390Z,2.87
2019-01-25T12:10:29.866Z,2.70
2019-01-25T12:12:59.296Z,2.70
2019-01-25T12:15:28.382Z,2.68
2019-01-25T12:17:58.094Z,2.87
2019-01-25T12:20:29.300Z,2.81
2019-01-25T12:22:58.351Z,2.61
2019-01-25T12:25:27.498Z,3.00
2019-01-25T12:27:56.624Z,2.75
2019-01-25T12:30:27.039Z,2.73
2019-01-25T12:32:56.174Z,2.69
2019-01-25T12:35:25.547Z,2.84
2019-01-25T12:37:54.582Z,2.69
2019-01-25T12:40:23.961Z,2.77
2019-01-25T12:42:53.550Z,2.75
2019-01-25T12:45:24.645Z,2.86
2019-01-25T12:47:53.921Z,2.77
2019-01-25T12:50:32.177Z,2.77
2019-01-25T12:53:02.318Z,2.74
2019-01-25T12:55:32.800Z,2.73
2019-01-25T12:58:02.001Z,2.83
2019-01-25T13:00:31.662Z,2.59
2019-01-25T13:03:02.078Z,2.66
2019-01-25T13:05:31.218Z,2.74
2019-01-25T13:08:00.329Z,2.95
2019-01-25T13:10:29.602Z,3.14
2019-01-25T13:12:58.714Z,3.04
2019-01-25T13:15:27.780Z,3.14
2019-01-25T13:17:56.874Z,2.98
2019-01-25T13:20:26.980Z,3.05
2019-01-25T13:22:56.272Z,2.88
2019-01-25T13:25:25.296Z,2.87
2019-01-25T13:27:56.400Z,2.95
2019-01-25T13:30:27.368Z,2.90
2019-01-25T13:32:56.835Z,2.98
2019-01-25T13:35:25.931Z,2.98
2019-01-25T13:37:55.364Z,3.03
2019-01-25T13:40:25.219Z,2.97
2019-01-25T13:42:54.356Z,2.90
2019-01-25T13:45:24.258Z,2.74
2019-01-25T13:47:53.566Z,2.87
2019-01-25T13:50:24.646Z,2.75
2019-01-25T13:52:53.688Z,2.75
2019-01-25T13:55:23.378Z,2.63
2019-01-25T13:57:52.474Z,2.81
2019-01-25T14:00:34.486Z,2.59
2019-01-25T14:03:03.570Z,2.66
2019-01-25T14:05:32.996Z,2.44
2019-01-25T14:08:02.610Z,2.59
2019-01-25T14:10:33.597Z,2.47
2019-01-25T14:13:03.061Z,2.44
2019-01-25T14:15:32.104Z,2.46
2019-01-25T14:18:01.200Z,2.44
2019-01-25T14:20:31.541Z,2.44
2019-01-25T14:23:01.032Z,2.54
2019-01-25T14:25:30.119Z,2.35
2019-01-25T14:27:59.839Z,2.35
2019-01-25T14:30:31.582Z,2.54
2019-01-25T14:33:00.620Z,2.38
2019-01-25T14:35:29.937Z,2.33
2019-01-25T14:37:59.253Z,2.35
2019-01-25T14:40:28.330Z,2.46
2019-01-25T14:42:57.860Z,2.34
2019-01-25T14:45:27.819Z,2.28
2019-01-25T14:47:56.867Z,2.26
2019-01-25T14:50:26.983Z,2.26
2019-01-25T14:52:56.112Z,2.40
2019-01-25T14:55:25.435Z,2.44
2019-01-25T14:57:55.352Z,2.34
2019-01-25T15:00:24.437Z,2.45
2019-01-25T15:02:54.089Z,2.61
2019-01-25T15:05:23.162Z,2.55
2019-01-25T15:07:52.223Z,2.58
2019-01-25T15:10:23.265Z,2.52
2019-01-25T15:12:54.263Z,2.49
2019-01-25T15:15:23.710Z,2.57
2019-01-25T15:17:52.848Z,2.66
2019-01-25T15:20:23.998Z,2.42
2019-01-25T15:22:53.127Z,2.68
2019-01-25T15:25:22.454Z,2.86
2019-01-25T15:27:51.824Z,2.59
2019-01-25T15:30:23.928Z,2.61
2019-01-25T15:32:52.963Z,2.64
2019-01-25T15:35:22.943Z,2.67
2019-01-25T15:37:51.997Z,2.59
2019-01-25T15:40:21.040Z,2.35
2019-01-25T15:42:51.537Z,2.58
2019-01-25T15:45:21.116Z,2.55
2019-01-25T15:47:50.157Z,2.51
2019-01-25T15:50:24.066Z,2.59
2019-01-25T15:52:53.490Z,2.58
2019-01-25T15:55:22.624Z,2.72
2019-01-25T15:57:52.355Z,2.64
2019-01-25T16:00:22.598Z,2.72
2019-01-25T16:02:52.000Z,2.56
2019-01-25T16:05:22.130Z,2.70
2019-01-25T16:07:51.505Z,2.83
2019-01-25T16:10:21.584Z,2.61
2019-01-25T16:12:50.922Z,2.70
2019-01-25T16:15:28.492Z,2.83
2019-01-25T16:17:57.644Z,2.85
2019-01-25T16:20:26.711Z,2.82
2019-01-25T16:22:56.075Z,2.60
2019-01-25T16:25:27.225Z,2.61
2019-01-25T16:27:56.696Z,2.65
2019-01-25T16:30:37.235Z,2.67
2019-01-25T16:33:06.623Z,2.64
2019-01-25T16:35:35.862Z,2.67
2019-01-25T16:38:05.730Z,2.69
2019-01-25T16:40:35.551Z,2.67
2019-01-25T16:43:06.732Z,2.69
2019-01-25T16:45:38.239Z,2.73
2019-01-25T16:48:07.538Z,2.75
2019-01-25T16:50:36.883Z,2.82
2019-01-25T16:53:07.805Z,2.72
2019-01-25T16:55:37.140Z,2.78
2019-01-25T16:58:07.255Z,2.80
2019-01-25T17:00:38.858Z,2.74
2019-01-25T17:03:09.152Z,2.65
2019-01-25T17:05:38.788Z,2.69
2019-01-25T17:08:08.144Z,2.77
2019-01-25T17:10:37.464Z,2.55
2019-01-25T17:13:06.847Z,2.67
2019-01-25T17:15:36.283Z,2.78
2019-01-25T17:18:05.954Z,2.78
2019-01-25T17:20:35.770Z,2.80
2019-01-25T17:23:05.080Z,2.72
2019-01-25T17:25:34.599Z,2.75
2019-01-25T17:28:04.128Z,2.71
2019-01-25T17:30:34.734Z,2.61
2019-01-25T17:33:05.238Z,2.67
2019-01-25T17:35:34.536Z,2.69
2019-01-25T17:38:04.356Z,2.83
2019-01-25T17:40:36.711Z,2.75
2019-01-25T17:43:06.356Z,2.74
2019-01-25T17:45:36.205Z,2.65
2019-01-25T17:48:06.075Z,2.64
2019-01-25T17:50:35.472Z,2.64
2019-01-25T17:53:04.655Z,2.77
2019-01-25T17:55:34.115Z,2.67
2019-01-25T17:58:08.107Z,2.56
2019-01-25T18:00:38.801Z,2.55
2019-01-25T18:03:08.256Z,2.63
2019-01-25T18:05:37.513Z,2.64
2019-01-25T18:08:06.817Z,2.67
2019-01-25T18:10:35.947Z,2.66
2019-01-25T18:13:05.544Z,2.78
2019-01-25T18:15:34.988Z,2.64
2019-01-25T18:18:04.474Z,2.73
2019-01-25T18:20:36.170Z,2.68
2019-01-25T18:23:06.517Z,2.65
2019-01-25T18:25:51.163Z,2.63
2019-01-25T18:28:27.065Z,2.70
2019-01-25T18:31:09.042Z,2.66
2019-01-25T18:33:38.074Z,2.76
2019-01-25T18:36:07.202Z,2.72
2019-01-25T18:38:36.568Z,2.73
2019-01-25T18:41:06.427Z,2.78
2019-01-25T18:43:35.821Z,2.78
2019-01-25T18:46:05.549Z,2.80
2019-01-25T18:48:34.683Z,2.81
2019-01-25T18:51:04.810Z,2.95
2019-01-25T18:53:33.831Z,2.94
2019-01-25T18:56:06.227Z,2.89
2019-01-25T18:58:35.449Z,2.87
2019-01-25T19:01:04.883Z,2.86
2019-01-25T19:03:33.890Z,2.87
2019-01-25T19:06:04.604Z,2.95
2019-01-25T19:08:34.238Z,2.96
2019-01-25T19:11:04.011Z,2.99
2019-01-25T19:13:33.326Z,3.03
2019-01-25T19:16:02.788Z,3.04
2019-01-25T19:18:31.871Z,3.10
2019-01-25T19:21:01.123Z,3.09
2019-01-25T19:23:30.382Z,3.08
2019-01-25T19:25:59.457Z,3.16
2019-01-25T19:28:28.502Z,3.13
2019-01-25T19:30:57.574Z,3.18
2019-01-25T19:33:26.966Z,3.20
2019-01-25T19:35:56.263Z,3.17
2019-01-25T19:38:25.315Z,3.20
2019-01-25T19:40:54.413Z,3.26
2019-01-25T19:43:23.465Z,3.38
2019-01-25T19:45:52.488Z,3.28
2019-01-25T19:48:22.511Z,3.37
2019-01-25T19:50:51.846Z,3.44
2019-01-25T19:53:21.599Z,3.49
2019-01-25T19:55:50.634Z,3.38
2019-01-25T19:58:20.569Z,3.53
2019-01-25T20:00:49.625Z,3.52
2019-01-25T20:03:18.719Z,3.49
2019-01-25T20:05:48.579Z,3.47
2019-01-25T20:08:17.666Z,3.42
2019-01-25T20:10:47.109Z,3.43
2019-01-25T20:13:16.782Z,3.45
2019-01-25T20:15:45.871Z,3.53
2019-01-25T20:18:14.961Z,3.57
2019-01-25T20:20:45.419Z,3.82
2019-01-25T20:23:14.545Z,3.84
2019-01-25T20:25:43.625Z,3.88
2019-01-25T20:28:13.038Z,3.90
2019-01-25T20:30:49.432Z,3.95
2019-01-25T20:33:13.196Z,3.99
2019-01-25T20:35:43.252Z,3.95
2019-01-25T20:38:12.537Z,3.87
2019-01-25T20:40:42.286Z,3.91
2019-01-25T20:43:12.997Z,3.93
2019-01-25T20:45:42.641Z,3.90
2019-01-25T20:48:12.064Z,3.91
2019-01-25T20:50:41.091Z,3.86
2019-01-25T20:53:11.200Z,3.80
2019-01-25T20:55:40.455Z,3.77
2019-01-25T20:58:10.415Z,3.76
2019-01-25T21:00:40.316Z,3.85
2019-01-25T21:03:11.953Z,3.73
2019-01-25T21:05:41.007Z,3.78
2019-01-25T21:08:10.049Z,3.80
2019-01-25T21:10:39.474Z,3.77
2019-01-25T21:13:08.550Z,3.81
2019-01-25T21:15:37.848Z,3.81
2019-01-25T21:18:09.179Z,3.90
2019-01-25T21:20:41.405Z,3.86
2019-01-25T21:23:10.413Z,3.99
2019-01-25T21:25:40.193Z,3.96
2019-01-25T21:28:09.985Z,4.04
2019-01-25T21:30:39.037Z,3.90
2019-01-25T21:33:08.447Z,3.88
2019-01-25T21:35:37.485Z,3.85
2019-01-25T21:38:07.335Z,3.95
2019-01-25T21:40:36.787Z,3.88
2019-01-25T21:43:07.244Z,3.84
2019-01-25T21:45:42.938Z,3.84
2019-01-25T21:48:11.896Z,3.97
2019-01-25T21:50:42.541Z,4.03
2019-01-25T21:53:12.209Z,3.94
2019-01-25T21:55:41.584Z,4.01
2019-01-25T21:58:11.509Z,4.00
2019-01-25T22:00:40.556Z,4.00
2019-01-25T22:03:12.382Z,3.99
2019-01-25T22:05:41.743Z,4.00
2019-01-25T22:08:10.932Z,4.02
2019-01-25T22:10:43.996Z,4.00
2019-01-25T22:13:13.112Z,3.99
2019-01-25T22:15:42.107Z,4.01
2019-01-25T22:18:11.426Z,4.09
2019-01-25T22:20:40.503Z,4.07
2019-01-25T22:23:09.693Z,4.10
2019-01-25T22:25:38.974Z,4.25
2019-01-25T22:28:08.224Z,4.21
2019-01-25T22:30:37.268Z,4.33
2019-01-25T22:33:06.670Z,4.22
2019-01-25T22:35:36.010Z,4.43
2019-01-25T22:38:05.021Z,4.33
2019-01-25T22:40:34.661Z,4.37
2019-01-25T22:43:05.458Z,4.44
2019-01-25T22:45:34.663Z,4.44
2019-01-25T22:48:04.668Z,4.40
2019-01-25T22:50:36.137Z,4.41
2019-01-25T22:53:06.077Z,4.45
2019-01-25T22:55:35.531Z,4.47
2019-01-25T22:58:04.923Z,4.49
2019-01-25T23:00:52.767Z,4.61
2019-01-25T23:03:34.707Z,4.56
2019-01-25T23:06:16.490Z,4.59
2019-01-25T23:08:46.114Z,4.67
2019-01-25T23:11:15.168Z,4.79
2019-01-25T23:13:44.197Z,4.75
2019-01-25T23:16:13.259Z,4.77
2019-01-25T23:18:42.636Z,4.82
2019-01-25T23:21:11.762Z,4.84
2019-01-25T23:23:41.538Z,4.89
2019-01-25T23:26:10.967Z,4.94
2019-01-25T23:28:39.976Z,4.95
2019-01-25T23:31:09.300Z,5.04
2019-01-25T23:33:38.409Z,5.12
2019-01-25T23:36:07.421Z,5.09
2019-01-25T23:38:36.451Z,5.09
2019-01-25T23:41:05.817Z,5.09
2019-01-25T23:43:34.863Z,5.05
2019-01-25T23:46:03.939Z,5.12
2019-01-25T23:48:33.261Z,5.19
2019-01-25T23:51:02.271Z,5.26
2019-01-25T23:53:32.422Z,5.30
2019-01-25T23:56:01.827Z,5.38
2019-01-25T23:58:30.878Z,5.51
